sensor_id;sensor_type;location;lat;lon;timestamp;temperature;humidity
9861;DHT22;4969;52.304;4.968;2023-03-15T00:00:20;5.71;79.74
9861;DHT22;4969;52.304;4.968;2023-03-15T00:02:46;5.64;77.04
9861;DHT22;4969;52.304;4.968;2023-03-15T00:05:14;5.90;75.78
9861;DHT22;4969;52.304;4.968;2023-03-15T00:07:41;5.87;76.00
9861;DHT22;4969;52.304;4.968;2023-03-15T00:10:08;5.81;74.57
9861;DHT22;4969;52.304;4.968;2023-03-15T00:12:35;5.87;75.61
9861;DHT22;4969;52.304;4.968;2023-03-15T00:15:02;6.32;76.75
9861;DHT22;4969;52.304;4.968;2023-03-15T00:17:29;7.23;77.97
9861;DHT22;4969;52.304;4.968;2023-03-15T00:19:59;7.86;78.22
9861;DHT22;4969;52.304;4.968;2023-03-15T00:22:26;7.82;75.49
9861;DHT22;4969;52.304;4.968;2023-03-15T00:24:53;7.55;74.53
9861;DHT22;4969;52.304;4.968;2023-03-15T00:27:20;7.20;73.72
9861;DHT22;4969;52.304;4.968;2023-03-15T00:29:46;7.51;74.91
9861;DHT22;4969;52.304;4.968;2023-03-15T00:32:13;7.58;75.72
9861;DHT22;4969;52.304;4.968;2023-03-15T00:34:39;8.61;75.48
9861;DHT22;4969;52.304;4.968;2023-03-15T00:37:06;8.43;73.55
9861;DHT22;4969;52.304;4.968;2023-03-15T00:39:34;8.64;74.29
9861;DHT22;4969;52.304;4.968;2023-03-15T00:42:04;8.87;73.00
9861;DHT22;4969;52.304;4.968;2023-03-15T00:44:30;9.00;73.62
9861;DHT22;4969;52.304;4.968;2023-03-15T00:46:57;8.61;73.34
9861;DHT22;4969;52.304;4.968;2023-03-15T00:49:23;8.64;73.22
9861;DHT22;4969;52.304;4.968;2023-03-15T00:51:53;8.23;72.69
9861;DHT22;4969;52.304;4.968;2023-03-15T00:54:20;8.78;75.98
9861;DHT22;4969;52.304;4.968;2023-03-15T00:56:49;9.02;72.85
9861;DHT22;4969;52.304;4.968;2023-03-15T00:59:15;8.87;72.64
9861;DHT22;4969;52.304;4.968;2023-03-15T01:01:42;9.16;73.05
9861;DHT22;4969;52.304;4.968;2023-03-15T01:04:09;9.12;74.42
9861;DHT22;4969;52.304;4.968;2023-03-15T01:06:36;8.69;71.98
9861;DHT22;4969;52.304;4.968;2023-03-15T01:09:04;9.00;73.76
9861;DHT22;4969;52.304;4.968;2023-03-15T01:11:31;8.57;70.86
9861;DHT22;4969;52.304;4.968;2023-03-15T01:13:59;8.30;69.50
9861;DHT22;4969;52.304;4.968;2023-03-15T01:16:28;7.72;70.75
9861;DHT22;4969;52.304;4.968;2023-03-15T01:18:55;7.30;71.84
9861;DHT22;4969;52.304;4.968;2023-03-15T01:21:22;8.10;74.67
9861;DHT22;4969;52.304;4.968;2023-03-15T01:23:49;8.75;78.13
9861;DHT22;4969;52.304;4.968;2023-03-15T01:26:16;8.85;73.19
9861;DHT22;4969;52.304;4.968;2023-03-15T01:28:43;9.00;73.64
9861;DHT22;4969;52.304;4.968;2023-03-15T01:31:16;9.44;73.95
9861;DHT22;4969;52.304;4.968;2023-03-15T01:33:43;9.00;71.27
9861;DHT22;4969;52.304;4.968;2023-03-15T01:36:10;9.13;74.71
9861;DHT22;4969;52.304;4.968;2023-03-15T01:38:37;8.32;68.87
9861;DHT22;4969;52.304;4.968;2023-03-15T01:41:03;8.05;70.48
9861;DHT22;4969;52.304;4.968;2023-03-15T01:43:31;8.15;71.10
9861;DHT22;4969;52.304;4.968;2023-03-15T01:46:16;8.50;74.16
9861;DHT22;4969;52.304;4.968;2023-03-15T01:48:47;8.71;71.11
9861;DHT22;4969;52.304;4.968;2023-03-15T01:51:17;7.75;68.27
9861;DHT22;4969;52.304;4.968;2023-03-15T01:53:51;7.95;72.43
9861;DHT22;4969;52.304;4.968;2023-03-15T01:56:20;8.01;71.88
9861;DHT22;4969;52.304;4.968;2023-03-15T01:58:49;8.06;71.29
9861;DHT22;4969;52.304;4.968;2023-03-15T02:01:19;7.98;71.71
9861;DHT22;4969;52.304;4.968;2023-03-15T02:03:48;8.37;71.63
9861;DHT22;4969;52.304;4.968;2023-03-15T02:06:18;8.33;70.77
9861;DHT22;4969;52.304;4.968;2023-03-15T02:08:49;8.34;71.11
9861;DHT22;4969;52.304;4.968;2023-03-15T02:11:18;8.50;72.29
9861;DHT22;4969;52.304;4.968;2023-03-15T02:13:47;8.30;69.80
9861;DHT22;4969;52.304;4.968;2023-03-15T02:16:14;8.37;71.56
9861;DHT22;4969;52.304;4.968;2023-03-15T02:18:42;8.72;69.60
9861;DHT22;4969;52.304;4.968;2023-03-15T02:21:17;8.19;69.72
9861;DHT22;4969;52.304;4.968;2023-03-15T02:23:52;8.57;71.97
9861;DHT22;4969;52.304;4.968;2023-03-15T02:26:24;8.84;69.84
9861;DHT22;4969;52.304;4.968;2023-03-15T02:28:54;8.71;70.79
9861;DHT22;4969;52.304;4.968;2023-03-15T02:31:21;8.27;71.36
9861;DHT22;4969;52.304;4.968;2023-03-15T02:33:49;8.13;69.12
9861;DHT22;4969;52.304;4.968;2023-03-15T02:36:18;8.03;71.55
9861;DHT22;4969;52.304;4.968;2023-03-15T02:38:45;8.45;74.08
9861;DHT22;4969;52.304;4.968;2023-03-15T02:41:15;8.44;71.27
9861;DHT22;4969;52.304;4.968;2023-03-15T02:43:44;9.34;74.66
9861;DHT22;4969;52.304;4.968;2023-03-15T02:46:13;9.66;73.54
9861;DHT22;4969;52.304;4.968;2023-03-15T02:48:41;9.30;69.67
9861;DHT22;4969;52.304;4.968;2023-03-15T02:51:16;10.16;70.40
9861;DHT22;4969;52.304;4.968;2023-03-15T02:53:44;9.47;68.37
9861;DHT22;4969;52.304;4.968;2023-03-15T02:56:11;9.78;71.56
9861;DHT22;4969;52.304;4.968;2023-03-15T02:58:38;9.50;70.00
9861;DHT22;4969;52.304;4.968;2023-03-15T03:01:05;10.00;70.97
9861;DHT22;4969;52.304;4.968;2023-03-15T03:03:33;10.14;71.35
9861;DHT22;4969;52.304;4.968;2023-03-15T03:06:00;10.30;71.27
9861;DHT22;4969;52.304;4.968;2023-03-15T03:08:27;10.27;68.92
9861;DHT22;4969;52.304;4.968;2023-03-15T03:10:53;10.19;70.28
9861;DHT22;4969;52.304;4.968;2023-03-15T03:13:20;10.30;70.86
9861;DHT22;4969;52.304;4.968;2023-03-15T03:15:48;9.89;68.96
9861;DHT22;4969;52.304;4.968;2023-03-15T03:18:22;10.28;71.78
9861;DHT22;4969;52.304;4.968;2023-03-15T03:20:50;10.12;69.43
9861;DHT22;4969;52.304;4.968;2023-03-15T03:23:17;10.54;70.75
9861;DHT22;4969;52.304;4.968;2023-03-15T03:25:43;10.42;71.08
9861;DHT22;4969;52.304;4.968;2023-03-15T03:28:10;10.49;70.86
9861;DHT22;4969;52.304;4.968;2023-03-15T03:30:36;10.78;70.26
9861;DHT22;4969;52.304;4.968;2023-03-15T03:33:03;10.44;69.74
9861;DHT22;4969;52.304;4.968;2023-03-15T03:35:30;10.14;69.30
9861;DHT22;4969;52.304;4.968;2023-03-15T03:37:58;10.54;69.46
9861;DHT22;4969;52.304;4.968;2023-03-15T03:40:25;10.24;70.00
9861;DHT22;4969;52.304;4.968;2023-03-15T03:42:51;10.58;69.87
9861;DHT22;4969;52.304;4.968;2023-03-15T03:45:18;10.27;69.17
9861;DHT22;4969;52.304;4.968;2023-03-15T03:47:44;9.95;67.98
9861;DHT22;4969;52.304;4.968;2023-03-15T03:50:12;10.12;69.65
9861;DHT22;4969;52.304;4.968;2023-03-15T03:52:38;10.19;69.86
9861;DHT22;4969;52.304;4.968;2023-03-15T03:55:09;10.31;69.81
9861;DHT22;4969;52.304;4.968;2023-03-15T03:57:37;10.14;70.19
9861;DHT22;4969;52.304;4.968;2023-03-15T04:00:05;10.30;69.56
9861;DHT22;4969;52.304;4.968;2023-03-15T04:02:33;10.31;68.64
9861;DHT22;4969;52.304;4.968;2023-03-15T04:04:59;9.99;69.62
9861;DHT22;4969;52.304;4.968;2023-03-15T04:07:26;10.05;66.67
9861;DHT22;4969;52.304;4.968;2023-03-15T04:09:52;9.93;69.87
9861;DHT22;4969;52.304;4.968;2023-03-15T04:12:20;10.40;70.78
9861;DHT22;4969;52.304;4.968;2023-03-15T04:14:47;10.51;69.79
9861;DHT22;4969;52.304;4.968;2023-03-15T04:17:13;10.41;68.89
9861;DHT22;4969;52.304;4.968;2023-03-15T04:19:40;9.91;68.18
9861;DHT22;4969;52.304;4.968;2023-03-15T04:22:11;9.95;69.55
9861;DHT22;4969;52.304;4.968;2023-03-15T04:24:39;10.16;70.28
9861;DHT22;4969;52.304;4.968;2023-03-15T04:27:06;10.08;68.31
9861;DHT22;4969;52.304;4.968;2023-03-15T04:29:34;9.62;67.38
9861;DHT22;4969;52.304;4.968;2023-03-15T04:32:01;9.50;67.90
9861;DHT22;4969;52.304;4.968;2023-03-15T04:34:29;9.89;68.85
9861;DHT22;4969;52.304;4.968;2023-03-15T04:36:56;9.91;68.67
9861;DHT22;4969;52.304;4.968;2023-03-15T04:39:23;8.75;64.85
9861;DHT22;4969;52.304;4.968;2023-03-15T04:41:49;8.13;67.26
9861;DHT22;4969;52.304;4.968;2023-03-15T04:44:16;8.09;68.24
9861;DHT22;4969;52.304;4.968;2023-03-15T04:46:44;7.58;67.27
9861;DHT22;4969;52.304;4.968;2023-03-15T04:49:11;7.23;67.16
9861;DHT22;4969;52.304;4.968;2023-03-15T04:51:37;6.80;66.39
9861;DHT22;4969;52.304;4.968;2023-03-15T04:54:04;6.84;67.94
9861;DHT22;4969;52.304;4.968;2023-03-15T04:56:30;6.25;67.09
9861;DHT22;4969;52.304;4.968;2023-03-15T04:58:57;5.75;69.50
9861;DHT22;4969;52.304;4.968;2023-03-15T05:01:27;6.05;68.29
9861;DHT22;4969;52.304;4.968;2023-03-15T05:03:55;5.59;70.26
9861;DHT22;4969;52.304;4.968;2023-03-15T05:06:22;5.74;71.29
9861;DHT22;4969;52.304;4.968;2023-03-15T05:08:48;5.51;76.46
9861;DHT22;4969;52.304;4.968;2023-03-15T05:11:15;5.15;73.14
9861;DHT22;4969;52.304;4.968;2023-03-15T05:13:43;4.76;72.59
9861;DHT22;4969;52.304;4.968;2023-03-15T05:16:09;5.56;74.52
9861;DHT22;4969;52.304;4.968;2023-03-15T05:18:36;5.80;74.20
9861;DHT22;4969;52.304;4.968;2023-03-15T05:21:04;5.35;76.74
9861;DHT22;4969;52.304;4.968;2023-03-15T05:23:31;5.44;72.71
9861;DHT22;4969;52.304;4.968;2023-03-15T05:25:58;5.97;71.45
9861;DHT22;4969;52.304;4.968;2023-03-15T05:28:25;5.35;75.90
9861;DHT22;4969;52.304;4.968;2023-03-15T05:30:52;5.57;71.33
9861;DHT22;4969;52.304;4.968;2023-03-15T05:33:19;5.35;71.75
9861;DHT22;4969;52.304;4.968;2023-03-15T05:35:46;5.32;71.46
9861;DHT22;4969;52.304;4.968;2023-03-15T05:38:14;4.42;71.99
9861;DHT22;4969;52.304;4.968;2023-03-15T05:40:42;4.18;73.96
9861;DHT22;4969;52.304;4.968;2023-03-15T05:43:09;4.06;74.80
9861;DHT22;4969;52.304;4.968;2023-03-15T05:45:36;4.22;75.47
9861;DHT22;4969;52.304;4.968;2023-03-15T05:48:03;4.06;75.15
9861;DHT22;4969;52.304;4.968;2023-03-15T05:50:30;4.01;75.70
9861;DHT22;4969;52.304;4.968;2023-03-15T05:52:57;3.95;75.95
9861;DHT22;4969;52.304;4.968;2023-03-15T05:55:25;3.95;75.46
9861;DHT22;4969;52.304;4.968;2023-03-15T05:57:52;3.91;75.33
9861;DHT22;4969;52.304;4.968;2023-03-15T06:00:19;3.99;75.67
9861;DHT22;4969;52.304;4.968;2023-03-15T06:02:46;3.95;75.13
9861;DHT22;4969;52.304;4.968;2023-03-15T06:05:12;3.78;76.45
9861;DHT22;4969;52.304;4.968;2023-03-15T06:07:39;3.73;76.88
9861;DHT22;4969;52.304;4.968;2023-03-15T06:10:06;3.66;77.21
9861;DHT22;4969;52.304;4.968;2023-03-15T06:12:34;3.64;77.26
9861;DHT22;4969;52.304;4.968;2023-03-15T06:15:01;3.52;77.58
9861;DHT22;4969;52.304;4.968;2023-03-15T06:17:27;3.40;78.18
9861;DHT22;4969;52.304;4.968;2023-03-15T06:19:54;3.40;78.02
9861;DHT22;4969;52.304;4.968;2023-03-15T06:22:21;3.38;78.00
9861;DHT22;4969;52.304;4.968;2023-03-15T06:24:48;3.38;77.98
9861;DHT22;4969;52.304;4.968;2023-03-15T06:27:15;3.38;78.19
9861;DHT22;4969;52.304;4.968;2023-03-15T06:29:47;3.40;78.16
9861;DHT22;4969;52.304;4.968;2023-03-15T06:32:14;3.35;78.00
9861;DHT22;4969;52.304;4.968;2023-03-15T06:34:41;3.32;78.61
9861;DHT22;4969;52.304;4.968;2023-03-15T06:37:07;3.33;78.72
9861;DHT22;4969;52.304;4.968;2023-03-15T06:39:34;3.36;79.12
9861;DHT22;4969;52.304;4.968;2023-03-15T06:42:02;3.32;79.02
9861;DHT22;4969;52.304;4.968;2023-03-15T06:44:29;3.33;79.20
9861;DHT22;4969;52.304;4.968;2023-03-15T06:46:57;3.43;79.27
9861;DHT22;4969;52.304;4.968;2023-03-15T06:49:23;3.43;79.32
9861;DHT22;4969;52.304;4.968;2023-03-15T06:51:50;3.49;79.25
9861;DHT22;4969;52.304;4.968;2023-03-15T06:54:17;3.53;79.28
9861;DHT22;4969;52.304;4.968;2023-03-15T06:56:43;3.59;79.12
9861;DHT22;4969;52.304;4.968;2023-03-15T06:59:10;3.62;78.93
9861;DHT22;4969;52.304;4.968;2023-03-15T07:01:36;3.69;78.75
9861;DHT22;4969;52.304;4.968;2023-03-15T07:04:05;3.73;78.31
9861;DHT22;4969;52.304;4.968;2023-03-15T07:06:32;3.78;78.43
9861;DHT22;4969;52.304;4.968;2023-03-15T07:08:58;3.93;77.73
9861;DHT22;4969;52.304;4.968;2023-03-15T07:11:25;3.90;77.38
9861;DHT22;4969;52.304;4.968;2023-03-15T07:13:52;3.94;77.01
9861;DHT22;4969;52.304;4.968;2023-03-15T07:16:18;4.08;76.17
9861;DHT22;4969;52.304;4.968;2023-03-15T07:18:45;4.15;75.70
9861;DHT22;4969;52.304;4.968;2023-03-15T07:21:13;4.19;75.66
9861;DHT22;4969;52.304;4.968;2023-03-15T07:23:39;4.25;75.53
9861;DHT22;4969;52.304;4.968;2023-03-15T07:26:06;4.32;75.28
9861;DHT22;4969;52.304;4.968;2023-03-15T07:28:33;4.33;75.30
9861;DHT22;4969;52.304;4.968;2023-03-15T07:31:01;4.36;75.27
9861;DHT22;4969;52.304;4.968;2023-03-15T07:33:29;4.32;75.21
9861;DHT22;4969;52.304;4.968;2023-03-15T07:35:56;4.32;75.70
9861;DHT22;4969;52.304;4.968;2023-03-15T07:38:25;4.36;75.41
9861;DHT22;4969;52.304;4.968;2023-03-15T07:40:53;4.40;75.50
9861;DHT22;4969;52.304;4.968;2023-03-15T07:43:19;4.48;75.53
9861;DHT22;4969;52.304;4.968;2023-03-15T07:45:46;4.54;75.14
9861;DHT22;4969;52.304;4.968;2023-03-15T07:48:13;4.52;75.01
9861;DHT22;4969;52.304;4.968;2023-03-15T07:50:40;4.52;74.86
9861;DHT22;4969;52.304;4.968;2023-03-15T07:53:07;4.54;74.76
9861;DHT22;4969;52.304;4.968;2023-03-15T07:55:35;4.67;74.49
9861;DHT22;4969;52.304;4.968;2023-03-15T07:58:02;4.69;73.73
9861;DHT22;4969;52.304;4.968;2023-03-15T08:00:29;4.70;73.20
9861;DHT22;4969;52.304;4.968;2023-03-15T08:02:55;4.78;74.18
9861;DHT22;4969;52.304;4.968;2023-03-15T08:05:22;4.63;73.27
9861;DHT22;4969;52.304;4.968;2023-03-15T08:07:50;4.67;72.59
9861;DHT22;4969;52.304;4.968;2023-03-15T08:10:17;4.61;72.01
9861;DHT22;4969;52.304;4.968;2023-03-15T08:12:45;4.69;71.87
9861;DHT22;4969;52.304;4.968;2023-03-15T08:15:12;4.76;71.84
9861;DHT22;4969;52.304;4.968;2023-03-15T08:17:40;4.71;70.78
9861;DHT22;4969;52.304;4.968;2023-03-15T08:20:10;4.78;70.73
9861;DHT22;4969;52.304;4.968;2023-03-15T08:22:39;4.83;69.59
9861;DHT22;4969;52.304;4.968;2023-03-15T08:25:10;4.83;70.45
9861;DHT22;4969;52.304;4.968;2023-03-15T08:27:37;4.84;69.92
9861;DHT22;4969;52.304;4.968;2023-03-15T08:30:06;5.19;69.68
9861;DHT22;4969;52.304;4.968;2023-03-15T08:32:33;5.07;70.24
9861;DHT22;4969;52.304;4.968;2023-03-15T08:34:59;5.25;70.31
9861;DHT22;4969;52.304;4.968;2023-03-15T08:37:26;5.25;70.84
9861;DHT22;4969;52.304;4.968;2023-03-15T08:39:52;5.53;72.25
9861;DHT22;4969;52.304;4.968;2023-03-15T08:42:29;5.64;71.26
9861;DHT22;4969;52.304;4.968;2023-03-15T08:44:55;5.63;71.49
9861;DHT22;4969;52.304;4.968;2023-03-15T08:47:25;5.70;71.62
9861;DHT22;4969;52.304;4.968;2023-03-15T08:49:51;5.63;72.18
9861;DHT22;4969;52.304;4.968;2023-03-15T08:52:18;6.87;71.46
9861;DHT22;4969;52.304;4.968;2023-03-15T08:54:45;6.56;72.42
9861;DHT22;4969;52.304;4.968;2023-03-15T08:57:12;6.39;70.95
9861;DHT22;4969;52.304;4.968;2023-03-15T08:59:38;6.09;71.68
9861;DHT22;4969;52.304;4.968;2023-03-15T09:02:05;5.87;71.45
9861;DHT22;4969;52.304;4.968;2023-03-15T09:04:33;5.98;71.64
9861;DHT22;4969;52.304;4.968;2023-03-15T09:07:00;6.13;70.93
9861;DHT22;4969;52.304;4.968;2023-03-15T09:09:26;6.13;71.25
9861;DHT22;4969;52.304;4.968;2023-03-15T09:11:53;6.10;71.86
9861;DHT22;4969;52.304;4.968;2023-03-15T09:14:20;6.20;71.60
9861;DHT22;4969;52.304;4.968;2023-03-15T09:16:47;8.50;72.91
9861;DHT22;4969;52.304;4.968;2023-03-15T09:19:13;8.76;68.81
9861;DHT22;4969;52.304;4.968;2023-03-15T09:21:41;7.57;65.62
9861;DHT22;4969;52.304;4.968;2023-03-15T09:24:09;6.91;68.01
9861;DHT22;4969;52.304;4.968;2023-03-15T09:26:35;6.94;71.53
9861;DHT22;4969;52.304;4.968;2023-03-15T09:29:02;8.12;76.11
9861;DHT22;4969;52.304;4.968;2023-03-15T09:31:29;7.68;65.77
9861;DHT22;4969;52.304;4.968;2023-03-15T09:33:56;10.06;69.02
9861;DHT22;4969;52.304;4.968;2023-03-15T09:36:23;8.92;61.33
9861;DHT22;4969;52.304;4.968;2023-03-15T09:38:51;8.22;63.32
9861;DHT22;4969;52.304;4.968;2023-03-15T09:41:24;10.17;66.42
9861;DHT22;4969;52.304;4.968;2023-03-15T09:44:13;10.16;60.11
9861;DHT22;4969;52.304;4.968;2023-03-15T09:46:48;9.31;63.99
9861;DHT22;4969;52.304;4.968;2023-03-15T09:49:24;9.27;62.20
9861;DHT22;4969;52.304;4.968;2023-03-15T09:51:56;9.78;66.83
9861;DHT22;4969;52.304;4.968;2023-03-15T09:54:27;9.24;61.46
9861;DHT22;4969;52.304;4.968;2023-03-15T09:56:59;8.19;60.62
9861;DHT22;4969;52.304;4.968;2023-03-15T09:59:31;8.36;70.50
9861;DHT22;4969;52.304;4.968;2023-03-15T10:02:00;10.72;73.50
9861;DHT22;4969;52.304;4.968;2023-03-15T10:04:30;14.03;55.20
9861;DHT22;4969;52.304;4.968;2023-03-15T10:07:00;12.20;61.38
9861;DHT22;4969;52.304;4.968;2023-03-15T10:09:31;10.48;56.07
9861;DHT22;4969;52.304;4.968;2023-03-15T10:12:02;10.51;63.14
9861;DHT22;4969;52.304;4.968;2023-03-15T10:14:47;9.65;56.75
9861;DHT22;4969;52.304;4.968;2023-03-15T10:17:23;8.71;56.64
9861;DHT22;4969;52.304;4.968;2023-03-15T10:19:54;8.67;57.74
9861;DHT22;4969;52.304;4.968;2023-03-15T10:22:29;11.99;69.86
9861;DHT22;4969;52.304;4.968;2023-03-15T10:25:03;14.40;60.11
9861;DHT22;4969;52.304;4.968;2023-03-15T10:27:41;14.31;60.94
9861;DHT22;4969;52.304;4.968;2023-03-15T10:30:15;12.55;47.27
9861;DHT22;4969;52.304;4.968;2023-03-15T10:32:43;11.61;46.72
9861;DHT22;4969;52.304;4.968;2023-03-15T10:35:13;10.54;55.85
9861;DHT22;4969;52.304;4.968;2023-03-15T10:37:40;10.23;55.59
9861;DHT22;4969;52.304;4.968;2023-03-15T10:40:10;12.54;49.55
9861;DHT22;4969;52.304;4.968;2023-03-15T10:42:41;11.48;58.64
9861;DHT22;4969;52.304;4.968;2023-03-15T10:45:18;11.93;57.27
9861;DHT22;4969;52.304;4.968;2023-03-15T10:47:46;13.74;50.72
9861;DHT22;4969;52.304;4.968;2023-03-15T10:50:17;14.21;45.19
9861;DHT22;4969;52.304;4.968;2023-03-15T10:52:53;12.69;58.41
9861;DHT22;4969;52.304;4.968;2023-03-15T10:55:29;13.17;44.50
9861;DHT22;4969;52.304;4.968;2023-03-15T10:57:58;11.75;61.31
9861;DHT22;4969;52.304;4.968;2023-03-15T11:00:37;13.61;62.75
9861;DHT22;4969;52.304;4.968;2023-03-15T11:03:04;12.10;51.18
9861;DHT22;4969;52.304;4.968;2023-03-15T11:05:39;12.13;47.83
9861;DHT22;4969;52.304;4.968;2023-03-15T11:08:11;10.08;47.76
9861;DHT22;4969;52.304;4.968;2023-03-15T11:10:41;11.47;52.38
9861;DHT22;4969;52.304;4.968;2023-03-15T11:13:10;12.19;49.01
9861;DHT22;4969;52.304;4.968;2023-03-15T11:15:38;12.45;52.16
9861;DHT22;4969;52.304;4.968;2023-03-15T11:18:10;13.99;57.90
9861;DHT22;4969;52.304;4.968;2023-03-15T11:20:42;12.41;56.36
9861;DHT22;4969;52.304;4.968;2023-03-15T11:23:14;14.47;58.69
9861;DHT22;4969;52.304;4.968;2023-03-15T11:25:42;14.41;45.28
9861;DHT22;4969;52.304;4.968;2023-03-15T11:28:15;14.52;49.60
9861;DHT22;4969;52.304;4.968;2023-03-15T11:30:43;11.31;50.32
9861;DHT22;4969;52.304;4.968;2023-03-15T11:33:18;14.16;55.34
9861;DHT22;4969;52.304;4.968;2023-03-15T11:35:47;15.20;56.67
9861;DHT22;4969;52.304;4.968;2023-03-15T11:38:19;13.85;57.15
9861;DHT22;4969;52.304;4.968;2023-03-15T11:40:53;14.33;53.62
9861;DHT22;4969;52.304;4.968;2023-03-15T11:43:24;11.93;51.40
9861;DHT22;4969;52.304;4.968;2023-03-15T11:45:55;12.51;46.03
9861;DHT22;4969;52.304;4.968;2023-03-15T11:48:26;14.68;57.92
9861;DHT22;4969;52.304;4.968;2023-03-15T11:50:54;16.10;54.79
9861;DHT22;4969;52.304;4.968;2023-03-15T11:53:26;17.12;47.88
9861;DHT22;4969;52.304;4.968;2023-03-15T11:56:23;14.71;45.82
9861;DHT22;4969;52.304;4.968;2023-03-15T11:59:04;12.61;53.07
9861;DHT22;4969;52.304;4.968;2023-03-15T12:01:34;11.02;44.80
9861;DHT22;4969;52.304;4.968;2023-03-15T12:04:39;12.27;64.46
9861;DHT22;4969;52.304;4.968;2023-03-15T12:07:23;13.65;43.41
9861;DHT22;4969;52.304;4.968;2023-03-15T12:09:54;12.86;52.88
9861;DHT22;4969;52.304;4.968;2023-03-15T12:12:36;11.51;41.69
9861;DHT22;4969;52.304;4.968;2023-03-15T12:15:06;10.08;44.13
9861;DHT22;4969;52.304;4.968;2023-03-15T12:17:45;9.59;45.39
9861;DHT22;4969;52.304;4.968;2023-03-15T12:20:21;9.41;46.39
9861;DHT22;4969;52.304;4.968;2023-03-15T12:22:56;12.02;60.65
9861;DHT22;4969;52.304;4.968;2023-03-15T12:25:35;12.29;50.70
9861;DHT22;4969;52.304;4.968;2023-03-15T12:28:07;12.31;41.22
9861;DHT22;4969;52.304;4.968;2023-03-15T12:30:39;13.13;53.94
9861;DHT22;4969;52.304;4.968;2023-03-15T12:33:13;14.54;49.00
9861;DHT22;4969;52.304;4.968;2023-03-15T12:35:41;14.06;41.34
9861;DHT22;4969;52.304;4.968;2023-03-15T12:38:11;13.48;58.65
9861;DHT22;4969;52.304;4.968;2023-03-15T12:40:54;11.58;40.54
9861;DHT22;4969;52.304;4.968;2023-03-15T12:43:37;10.88;42.91
9861;DHT22;4969;52.304;4.968;2023-03-15T12:46:04;12.10;51.41
9861;DHT22;4969;52.304;4.968;2023-03-15T12:48:33;13.06;40.85
9861;DHT22;4969;52.304;4.968;2023-03-15T12:51:06;11.12;41.81
9861;DHT22;4969;52.304;4.968;2023-03-15T12:53:42;12.38;63.51
9861;DHT22;4969;52.304;4.968;2023-03-15T12:56:32;13.54;41.63
9861;DHT22;4969;52.304;4.968;2023-03-15T12:59:09;14.07;49.40
9861;DHT22;4969;52.304;4.968;2023-03-15T13:01:39;13.28;50.36
9861;DHT22;4969;52.304;4.968;2023-03-15T13:04:08;16.19;53.49
9861;DHT22;4969;52.304;4.968;2023-03-15T13:09:55;15.18;41.22
9861;DHT22;4969;52.304;4.968;2023-03-15T13:12:26;15.31;38.71
9861;DHT22;4969;52.304;4.968;2023-03-15T13:15:00;14.81;38.77
9861;DHT22;4969;52.304;4.968;2023-03-15T13:17:35;17.64;52.43
9861;DHT22;4969;52.304;4.968;2023-03-15T13:20:15;16.98;44.76
9861;DHT22;4969;52.304;4.968;2023-03-15T13:22:51;15.57;36.93
9861;DHT22;4969;52.304;4.968;2023-03-15T13:25:24;13.97;37.61
9861;DHT22;4969;52.304;4.968;2023-03-15T13:27:54;15.57;58.67
9861;DHT22;4969;52.304;4.968;2023-03-15T13:30:31;14.73;40.44
9861;DHT22;4969;52.304;4.968;2023-03-15T13:33:04;13.12;43.11
9861;DHT22;4969;52.304;4.968;2023-03-15T13:35:32;14.69;60.58
9861;DHT22;4969;52.304;4.968;2023-03-15T13:38:05;15.75;47.77
9861;DHT22;4969;52.304;4.968;2023-03-15T13:40:32;16.03;40.22
9861;DHT22;4969;52.304;4.968;2023-03-15T13:42:59;16.38;47.26
9861;DHT22;4969;52.304;4.968;2023-03-15T13:45:27;15.97;44.57
9861;DHT22;4969;52.304;4.968;2023-03-15T13:47:54;15.96;54.73
9861;DHT22;4969;52.304;4.968;2023-03-15T13:50:20;15.54;40.50
9861;DHT22;4969;52.304;4.968;2023-03-15T13:52:47;14.99;56.08
9861;DHT22;4969;52.304;4.968;2023-03-15T13:55:15;15.23;49.74
9861;DHT22;4969;52.304;4.968;2023-03-15T13:57:42;16.34;54.62
9861;DHT22;4969;52.304;4.968;2023-03-15T14:00:11;14.75;47.78
9861;DHT22;4969;52.304;4.968;2023-03-15T14:02:46;15.45;44.82
9861;DHT22;4969;52.304;4.968;2023-03-15T14:05:14;17.52;47.52
9861;DHT22;4969;52.304;4.968;2023-03-15T14:07:43;16.89;43.50
9861;DHT22;4969;52.304;4.968;2023-03-15T14:10:25;17.74;50.68
9861;DHT22;4969;52.304;4.968;2023-03-15T14:12:53;16.16;38.27
9861;DHT22;4969;52.304;4.968;2023-03-15T14:15:23;15.66;53.48
9861;DHT22;4969;52.304;4.968;2023-03-15T14:17:57;13.93;40.44
9861;DHT22;4969;52.304;4.968;2023-03-15T14:20:27;15.62;61.43
9861;DHT22;4969;52.304;4.968;2023-03-15T14:22:59;15.27;44.55
9861;DHT22;4969;52.304;4.968;2023-03-15T14:25:26;15.62;59.30
9861;DHT22;4969;52.304;4.968;2023-03-15T14:27:53;14.27;45.97
9861;DHT22;4969;52.304;4.968;2023-03-15T14:30:21;13.88;46.65
9861;DHT22;4969;52.304;4.968;2023-03-15T14:32:51;14.26;41.88
9861;DHT22;4969;52.304;4.968;2023-03-15T14:35:21;14.10;60.92
9861;DHT22;4969;52.304;4.968;2023-03-15T14:37:59;14.48;59.05
9861;DHT22;4969;52.304;4.968;2023-03-15T14:40:29;15.27;61.05
9861;DHT22;4969;52.304;4.968;2023-03-15T14:42:59;15.69;45.47
9861;DHT22;4969;52.304;4.968;2023-03-15T14:45:26;15.07;47.56
9861;DHT22;4969;52.304;4.968;2023-03-15T14:47:56;14.78;39.96
9861;DHT22;4969;52.304;4.968;2023-03-15T14:50:28;15.31;40.01
9861;DHT22;4969;52.304;4.968;2023-03-15T14:52:57;16.55;56.94
9861;DHT22;4969;52.304;4.968;2023-03-15T14:55:28;17.28;53.88
9861;DHT22;4969;52.304;4.968;2023-03-15T14:57:55;17.28;53.46
9861;DHT22;4969;52.304;4.968;2023-03-15T15:00:22;17.27;42.17
9861;DHT22;4969;52.304;4.968;2023-03-15T15:02:50;16.95;47.66
9861;DHT22;4969;52.304;4.968;2023-03-15T15:05:21;15.93;45.99
9861;DHT22;4969;52.304;4.968;2023-03-15T15:07:50;15.40;52.19
9861;DHT22;4969;52.304;4.968;2023-03-15T15:10:19;14.72;52.08
9861;DHT22;4969;52.304;4.968;2023-03-15T15:12:46;14.78;44.85
9861;DHT22;4969;52.304;4.968;2023-03-15T15:15:14;15.47;59.07
9861;DHT22;4969;52.304;4.968;2023-03-15T15:17:41;16.49;56.75
9861;DHT22;4969;52.304;4.968;2023-03-15T15:20:09;16.33;43.45
9861;DHT22;4969;52.304;4.968;2023-03-15T15:22:37;16.42;44.03
9861;DHT22;4969;52.304;4.968;2023-03-15T15:25:12;14.50;51.52
9861;DHT22;4969;52.304;4.968;2023-03-15T15:27:39;14.03;50.96
9861;DHT22;4969;52.304;4.968;2023-03-15T15:30:10;15.20;40.66
9861;DHT22;4969;52.304;4.968;2023-03-15T15:32:36;15.93;43.22
9861;DHT22;4969;52.304;4.968;2023-03-15T15:35:04;15.68;45.55
9861;DHT22;4969;52.304;4.968;2023-03-15T15:37:30;16.23;56.16
9861;DHT22;4969;52.304;4.968;2023-03-15T15:39:57;16.45;48.75
9861;DHT22;4969;52.304;4.968;2023-03-15T15:42:25;15.18;48.81
9861;DHT22;4969;52.304;4.968;2023-03-15T15:44:51;16.76;51.10
9861;DHT22;4969;52.304;4.968;2023-03-15T15:47:18;17.19;52.78
9861;DHT22;4969;52.304;4.968;2023-03-15T15:49:44;17.44;51.58
9861;DHT22;4969;52.304;4.968;2023-03-15T15:52:12;15.65;46.36
9861;DHT22;4969;52.304;4.968;2023-03-15T15:54:38;14.18;44.85
9861;DHT22;4969;52.304;4.968;2023-03-15T15:57:08;13.79;40.05
9861;DHT22;4969;52.304;4.968;2023-03-15T15:59:36;15.16;53.34
9861;DHT22;4969;52.304;4.968;2023-03-15T16:02:12;14.82;53.43
9861;DHT22;4969;52.304;4.968;2023-03-15T16:04:39;15.72;46.90
9861;DHT22;4969;52.304;4.968;2023-03-15T16:07:08;16.09;54.73
9861;DHT22;4969;52.304;4.968;2023-03-15T16:09:36;15.61;43.85
9861;DHT22;4969;52.304;4.968;2023-03-15T16:12:10;14.89;47.07
9861;DHT22;4969;52.304;4.968;2023-03-15T16:14:38;15.66;36.94
9861;DHT22;4969;52.304;4.968;2023-03-15T16:17:09;14.65;45.61
9861;DHT22;4969;52.304;4.968;2023-03-15T16:19:36;15.41;58.03
9861;DHT22;4969;52.304;4.968;2023-03-15T16:22:03;16.69;53.13
9861;DHT22;4969;52.304;4.968;2023-03-15T16:24:31;16.44;44.86